Relevés horaires St-Hubert (Belgique)


Relevés horaires à St-Hubert - Mercredi 24 Févr. 2021
Heure UTC1 Température [°C] Vent [km/h] Hum. [%] Pres.4 [hPa] Visi. [Km] Nébu. [octa] Préc.5 [mm] Cond.
2m. Res. Ros. Dir.2 Vit. Moy. Raf.3
23:00 10.8 10.1 4.9 S 7.4 7.4 14.8 67 1027.9(-0.7/3h) 17 0/8 -- --
22:00 11.1 10.4 5.4 S 7.4 7.4 13.0 68 1028.1(-0.7/3h) 17 0/8 -- --
21:00 11.3 11.1 6.2 S 5.6 7.4 13.0 71 1028.5(-0.5/3h) 14 0/8 -- --
20:00 11.0 10.7 6.5 S 5.6 7.4 11.1 74 1028.6(-0.6/3h) 14 0/8 -- --
19:00 11.1 10.8 6.5 SSE 5.6 7.4 13.0 73 1028.8(-0.8/3h) 13 0/8 -- --
18:00 11.6 11 7.2 SSE 7.4 7.4 14.8 74 1029(-0.6/3h) 13 0/8 0/12h
--
17:00 12.8 12.8 7.3 SSE 5.6 5.6 11.1 69 1028.8(-0.9/3h) 13 0/8 -- --
16:00 14.4 14.4 7.7 S 3.7 7.4 11.1 64 1028.9(-1.0/3h) 13 0/8 -- --
15:00 14.9 14.9 7.2 SSO 5.6 7.4 14.8 60 1028.9(-1.4/3h) 14 0/8 -- --
14:00 14.7 14.7 7.1 S 5.6 7.4 13.0 60 1029.4(-1.6/3h) 15 0/8 -- --
13:00 14.6 14.6 8.5 S 5.6 7.4 14.8 67 1029.8(-1.3/3h) 14 0/8 -- --
12:00 13.9 13.9 8.6 S 5.6 7.4 14.8 70 1030.5(-1.0/3h) 13 1/8 0/6h
--
11:00 12.8 12.4 8.3 S 7.4 7.4 13.0 74 1031.5(-0.3/3h) 12 0/8 -- --
10:00 11.5 11.3 8.0 S 5.6 7.4 11.1 79 1031.9(0.1/3h) 16 0/8 -- --
09:00 10.0 9.6 7.4 S 5.6 7.4 11.1 84 1032.5(0.3/3h) 12 0/8 -- --
08:00 8.3 7.6 6.7 S 5.6 5.6 9.3 90 1032.9(0.3/3h) 12 0/8 -- --
07:00 7.3 7.3 5.9 SSO 3.7 5.6 11.1 91 1033.1(0.2/3h) 12 0/8 -- --
06:00 7.8 7.1 6.3 S 5.6 7.4 14.8 90 1032.8(0.0/3h) 12 0/8 0/12h
--
05:00 8.2 7.5 6.4 S 5.6 5.6 11.1 88 1032.7(-0.3/3h) 13 0/8 -- --
04:00 8.6 8.6 6.6 S 3.7 5.6 11.1 87 1032.5(-0.6/3h) 13 0/8 -- --
03:00 8.8 8.2 6.6 S 5.6 7.4 14.8 86 1032.6(-0.5/3h) 14 0/8 -- --
02:00 10.1 9.3 7.3 SSO 7.4 7.4 14.8 83 1032.5(-0.2/3h) 15 0/8 -- --
01:00 10.4 9.6 7.4 S 7.4 7.4 13.0 82 1032.7(0.0/3h) 17 0/8 -- --
00:00 10.4 10 7.2 S 5.6 7.4 11.1 81 1032.7(0.0/3h) 16 0/8 0/6h
0/24h
--

1 Coordinated Universal Time. Actuellement il est 12:00 locale et 10:00 UTC.

2 Le vent souffle depuis la direction indiquée vers la direction oposée.

3 Les rafales max. sont disponible 40 min après l'heure du relevé.

4 Pour les stations d'altitude (plus de 600m) le géopotentiel du niveau le plus proche de la pression obligatoire est indiqué.

5 Les stations disposant d'un diffuseur peuvent indiquer "trace". Cela signifie que des précipitations ont touchés le sol mais que la quantité est inférieure à 0.1 mm.

Récapitulatif de la journée
Température [°C] Vent [km/h] Ensoleillement4 [h] Precipitations totale5 [mm] Pression [Hpa]
Min1 Max.2 Moy.3 Max. Min Max.
7.8 15.4 7 14.8 0 h 0 min 0 1027.9 1033.1

1 Température minimale relevée entre 18:00 UTC la veille et 18:00 UTC le jour donné.

2 Température maximale relevée entre 06:00 UTC le jour donné et 06:00 UTC le lendemain.

3 Vent moyen de la journée basé sur les relevés horaires.

4 Ensoleillement en heures relevé entre 06:00 UTC la veille et 06:00 UTC le jour donné.

5 Précipitations totales tombées entre 06:00 UTC la jour donné et 06:00 UTC le lendemain.

Graphiques horaires